createdAt,value
2019-03-16T00:00:15.462Z,74.50
2019-03-16T00:02:43.819Z,76.20
2019-03-16T00:05:10.485Z,77.50
2019-03-16T00:07:36.923Z,78.20
2019-03-16T00:10:04.445Z,78.50
2019-03-16T00:12:30.917Z,77.90
2019-03-16T00:14:57.369Z,78.70
2019-03-16T00:17:23.974Z,78.70
2019-03-16T00:19:50.376Z,79.50
2019-03-16T00:22:16.817Z,79.90
2019-03-16T00:24:43.280Z,80.00
2019-03-16T00:27:09.717Z,80.30
2019-03-16T00:29:36.147Z,81.30
2019-03-16T00:32:12.794Z,82.20
2019-03-16T00:34:31.930Z,81.80
2019-03-16T00:36:58.385Z,83.00
2019-03-16T00:39:24.847Z,84.00
2019-03-16T00:41:51.284Z,83.80
2019-03-16T00:44:17.770Z,84.50
2019-03-16T00:46:44.171Z,84.20
2019-03-16T00:49:10.618Z,84.00
2019-03-16T00:51:37.157Z,84.60
2019-03-16T00:54:03.676Z,84.80
2019-03-16T00:56:30.211Z,83.70
2019-03-16T00:58:56.665Z,83.70
2019-03-16T01:01:23.112Z,85.00
2019-03-16T01:03:49.551Z,85.80
2019-03-16T01:06:16.108Z,86.10
2019-03-16T01:08:42.537Z,86.60
2019-03-16T01:11:08.979Z,87.60
2019-03-16T01:13:35.411Z,87.50
2019-03-16T01:16:01.898Z,86.90
2019-03-16T01:18:28.349Z,87.60
2019-03-16T01:20:54.794Z,88.10
2019-03-16T01:23:21.220Z,88.40
2019-03-16T01:25:47.696Z,89.40
2019-03-16T01:28:14.136Z,89.50
2019-03-16T01:30:40.595Z,89.80
2019-03-16T01:33:07.059Z,90.10
2019-03-16T01:35:33.619Z,89.80
2019-03-16T01:38:00.146Z,89.50
2019-03-16T01:40:26.647Z,89.10
2019-03-16T01:42:53.037Z,87.80
2019-03-16T01:45:19.460Z,87.00
2019-03-16T01:47:45.935Z,86.80
2019-03-16T01:50:12.583Z,87.20
2019-03-16T01:52:39.997Z,87.40
2019-03-16T01:55:07.542Z,87.30
2019-03-16T01:57:33.984Z,86.70
2019-03-16T02:00:00.439Z,86.40
2019-03-16T02:02:26.944Z,86.40
2019-03-16T02:04:53.408Z,86.70
2019-03-16T02:07:19.832Z,86.90
2019-03-16T02:09:46.283Z,87.30
2019-03-16T02:12:12.740Z,87.40
2019-03-16T02:14:39.190Z,86.90
2019-03-16T02:17:05.742Z,86.70
2019-03-16T02:19:32.216Z,86.80
2019-03-16T02:21:58.657Z,86.30
2019-03-16T02:24:25.196Z,86.40
2019-03-16T02:26:51.666Z,86.30
2019-03-16T02:29:18.090Z,86.70
2019-03-16T02:31:44.525Z,87.20
2019-03-16T02:34:10.970Z,87.70
2019-03-16T02:36:41.199Z,88.50
2019-03-16T02:39:07.662Z,88.30
2019-03-16T02:41:34.294Z,88.60
2019-03-16T02:44:00.733Z,89.20
2019-03-16T02:46:27.309Z,89.90
2019-03-16T02:48:53.694Z,90.00
2019-03-16T02:51:20.200Z,90.30
2019-03-16T02:53:46.656Z,90.00
2019-03-16T02:56:13.114Z,90.30
2019-03-16T02:58:39.548Z,90.00
2019-03-16T03:01:06.094Z,90.00
2019-03-16T03:03:32.559Z,90.50
2019-03-16T03:05:58.978Z,90.30
2019-03-16T03:08:25.418Z,90.40
2019-03-16T03:10:51.863Z,91.00
2019-03-16T03:13:18.341Z,90.50
2019-03-16T03:15:44.797Z,90.60
2019-03-16T03:18:11.253Z,90.00
2019-03-16T03:20:37.695Z,90.70
2019-03-16T03:23:04.209Z,90.70
2019-03-16T03:25:30.623Z,90.60
2019-03-16T03:27:57.066Z,90.70
2019-03-16T03:30:23.529Z,91.00
2019-03-16T03:32:49.986Z,90.70
2019-03-16T03:35:16.401Z,90.80
2019-03-16T03:37:42.830Z,90.90
2019-03-16T03:40:10.474Z,90.70
2019-03-16T03:42:37.143Z,90.70
2019-03-16T03:45:10.905Z,91.50
2019-03-16T03:47:37.459Z,91.20
2019-03-16T03:50:06.694Z,91.00
2019-03-16T03:52:33.133Z,91.20
2019-03-16T03:54:59.717Z,90.90
2019-03-16T03:57:26.231Z,91.50
2019-03-16T03:59:52.886Z,91.60
2019-03-16T04:02:19.418Z,91.20
2019-03-16T04:04:45.976Z,91.00
2019-03-16T04:07:12.425Z,90.90
2019-03-16T04:09:38.862Z,90.40
2019-03-16T04:12:05.273Z,90.70
2019-03-16T04:14:31.713Z,90.30
2019-03-16T04:16:58.154Z,91.80
2019-03-16T04:19:24.649Z,91.90
2019-03-16T04:21:51.065Z,91.90
2019-03-16T04:24:17.524Z,91.80
2019-03-16T04:26:44.004Z,92.30
2019-03-16T04:29:10.460Z,91.70
2019-03-16T04:31:36.911Z,91.80
2019-03-16T04:34:03.332Z,91.70
2019-03-16T04:36:29.785Z,91.80
2019-03-16T04:38:56.331Z,91.50
2019-03-16T04:41:22.770Z,90.80
2019-03-16T04:43:49.208Z,92.70
2019-03-16T04:46:15.674Z,92.70
2019-03-16T04:48:42.095Z,92.40
2019-03-16T04:51:08.545Z,92.10
2019-03-16T04:53:35.014Z,92.10
2019-03-16T04:56:01.443Z,91.90
2019-03-16T04:58:27.945Z,91.90
2019-03-16T05:00:54.390Z,90.70
2019-03-16T05:03:20.845Z,92.70
2019-03-16T05:05:47.290Z,92.80
2019-03-16T05:08:13.749Z,92.80
2019-03-16T05:10:40.192Z,91.40
2019-03-16T05:13:06.624Z,92.70
2019-03-16T05:15:33.067Z,91.90
2019-03-16T05:17:59.520Z,92.50
2019-03-16T05:20:25.974Z,92.10
2019-03-16T05:22:52.427Z,91.40
2019-03-16T05:25:18.854Z,92.70
2019-03-16T05:27:45.293Z,93.60
2019-03-16T05:30:12.872Z,92.90
2019-03-16T05:32:39.299Z,92.60
2019-03-16T05:35:06.635Z,92.10
2019-03-16T05:37:33.120Z,93.40
2019-03-16T05:39:59.557Z,94.30
2019-03-16T05:42:26.026Z,94.10
2019-03-16T05:44:52.476Z,94.70
2019-03-16T05:47:18.885Z,95.00
2019-03-16T05:49:45.344Z,94.50
2019-03-16T05:52:11.784Z,94.60
2019-03-16T05:54:38.236Z,94.10
2019-03-16T05:57:04.676Z,93.60
2019-03-16T05:59:31.129Z,93.00
2019-03-16T06:01:57.608Z,93.80
2019-03-16T06:04:24.065Z,93.90
2019-03-16T06:06:50.526Z,93.50
2019-03-16T06:09:16.941Z,93.30
2019-03-16T06:11:43.400Z,93.30
2019-03-16T06:14:09.843Z,93.60
2019-03-16T06:16:36.296Z,93.60
2019-03-16T06:19:02.767Z,93.80
2019-03-16T06:21:29.228Z,93.50
2019-03-16T06:23:55.648Z,93.50
2019-03-16T06:26:22.106Z,93.10
2019-03-16T06:28:48.587Z,92.80
2019-03-16T06:31:15.070Z,92.80
2019-03-16T06:33:51.335Z,92.60
2019-03-16T06:36:29.750Z,92.40
2019-03-16T06:39:06.013Z,92.60
2019-03-16T06:41:33.897Z,92.50
2019-03-16T06:44:11.191Z,92.50
2019-03-16T06:46:49.231Z,92.80
2019-03-16T06:49:27.442Z,92.90
2019-03-16T06:52:05.106Z,92.90
2019-03-16T06:54:43.144Z,92.60
2019-03-16T06:57:11.656Z,92.60
2019-03-16T06:59:48.463Z,92.60
2019-03-16T07:02:16.700Z,92.50
2019-03-16T07:04:43.169Z,92.60
2019-03-16T07:07:09.612Z,92.40
2019-03-16T07:09:36.072Z,91.90
2019-03-16T07:12:02.517Z,92.00
2019-03-16T07:14:28.994Z,92.00
2019-03-16T07:17:02.082Z,92.20
2019-03-16T07:19:23.960Z,92.30
2019-03-16T07:21:50.395Z,92.00
2019-03-16T07:24:16.854Z,91.70
2019-03-16T07:26:43.273Z,92.60
2019-03-16T07:29:09.710Z,92.70
2019-03-16T07:31:36.181Z,92.30
2019-03-16T07:34:02.713Z,92.50
2019-03-16T07:36:29.189Z,91.90
2019-03-16T07:38:55.637Z,92.20
2019-03-16T07:41:22.085Z,91.50
2019-03-16T07:43:48.550Z,90.70
2019-03-16T07:46:15.023Z,91.20
2019-03-16T07:48:41.444Z,90.30
2019-03-16T07:51:07.911Z,90.80
2019-03-16T07:53:34.355Z,91.50
2019-03-16T07:56:00.834Z,90.30
2019-03-16T07:58:27.389Z,90.10
2019-03-16T08:00:53.846Z,89.60
2019-03-16T08:03:20.276Z,90.30
2019-03-16T08:05:46.728Z,89.40
2019-03-16T08:08:13.207Z,87.00
2019-03-16T08:10:39.638Z,87.20
2019-03-16T08:13:06.101Z,87.20
2019-03-16T08:15:32.541Z,87.60
2019-03-16T08:17:58.989Z,90.10
2019-03-16T08:20:25.429Z,89.80
2019-03-16T08:22:51.992Z,88.10
2019-03-16T08:25:18.509Z,88.20
2019-03-16T08:27:53.936Z,88.10
2019-03-16T08:30:13.389Z,88.10
2019-03-16T08:32:39.877Z,88.40
2019-03-16T08:35:07.425Z,88.70
2019-03-16T08:37:33.891Z,87.00
2019-03-16T08:40:00.357Z,87.20
2019-03-16T08:42:26.798Z,85.30
2019-03-16T08:44:54.266Z,84.90
2019-03-16T08:47:21.807Z,84.10
2019-03-16T08:49:48.288Z,82.40
2019-03-16T08:52:14.733Z,82.20
2019-03-16T08:54:41.177Z,81.50
2019-03-16T08:57:07.625Z,79.40
2019-03-16T08:59:34.121Z,79.90
2019-03-16T09:02:00.542Z,79.80
2019-03-16T09:04:26.996Z,80.90
2019-03-16T09:06:53.459Z,80.30
2019-03-16T09:09:19.906Z,79.00
2019-03-16T09:11:46.397Z,81.30
2019-03-16T09:14:12.832Z,79.00
2019-03-16T09:16:39.432Z,79.60
2019-03-16T09:19:05.977Z,80.30
2019-03-16T09:21:32.490Z,79.20
2019-03-16T09:23:58.861Z,77.90
2019-03-16T09:26:25.333Z,79.70
2019-03-16T09:29:00.059Z,78.30
2019-03-16T09:31:20.076Z,78.20
2019-03-16T09:33:46.700Z,78.60
2019-03-16T09:36:13.243Z,78.60
2019-03-16T09:38:39.902Z,77.40
2019-03-16T09:41:06.347Z,76.40
2019-03-16T09:43:32.828Z,76.20
2019-03-16T09:45:59.278Z,76.10
2019-03-16T09:48:25.722Z,75.60
2019-03-16T09:50:52.188Z,74.50
2019-03-16T09:53:18.615Z,76.00
2019-03-16T09:55:45.097Z,75.70
2019-03-16T09:58:15.289Z,74.40
2019-03-16T10:00:41.739Z,74.30
2019-03-16T10:03:12.546Z,75.30
2019-03-16T10:05:39.020Z,75.20
2019-03-16T10:08:05.453Z,74.30
2019-03-16T10:10:31.936Z,74.60
2019-03-16T10:12:58.390Z,72.60
2019-03-16T10:15:24.871Z,73.50
2019-03-16T10:17:51.420Z,75.60
2019-03-16T10:20:19.914Z,73.30
2019-03-16T10:22:46.463Z,69.90
2019-03-16T10:25:13.930Z,69.40
2019-03-16T10:27:40.487Z,70.50
2019-03-16T10:30:10.577Z,70.50
2019-03-16T10:32:37.029Z,69.60
2019-03-16T10:35:05.266Z,68.30
2019-03-16T10:37:32.839Z,69.20
2019-03-16T10:39:59.319Z,70.10
2019-03-16T10:42:25.796Z,68.80
2019-03-16T10:44:52.239Z,68.10
2019-03-16T10:47:18.759Z,66.90
2019-03-16T10:49:45.226Z,66.00
2019-03-16T10:52:11.719Z,66.40
2019-03-16T10:54:38.209Z,68.60
2019-03-16T10:57:04.795Z,69.70
2019-03-16T10:59:31.634Z,66.90
2019-03-16T11:01:58.109Z,65.30
2019-03-16T11:04:24.688Z,65.50
2019-03-16T11:06:52.180Z,66.50
2019-03-16T11:09:18.703Z,65.40
2019-03-16T11:11:45.327Z,68.70
2019-03-16T11:14:11.760Z,63.40
2019-03-16T11:16:38.342Z,65.30
2019-03-16T11:19:05.435Z,65.40
2019-03-16T11:21:33.794Z,64.90
2019-03-16T11:24:00.261Z,63.70
2019-03-16T11:26:26.723Z,64.50
2019-03-16T11:28:53.168Z,66.00
2019-03-16T11:31:19.699Z,64.70
2019-03-16T11:33:48.272Z,63.80
2019-03-16T11:36:14.435Z,62.70
2019-03-16T11:38:40.880Z,63.10
2019-03-16T11:41:07.309Z,62.80
2019-03-16T11:43:33.756Z,62.40
2019-03-16T11:46:00.202Z,57.60
2019-03-16T11:48:26.671Z,59.80
2019-03-16T11:50:53.169Z,59.40
2019-03-16T11:53:19.735Z,58.30
2019-03-16T11:55:46.200Z,57.80
2019-03-16T11:58:12.646Z,55.40
2019-03-16T12:00:39.131Z,58.20
2019-03-16T12:03:05.611Z,59.70
2019-03-16T12:05:32.072Z,56.60
2019-03-16T12:07:58.542Z,55.80
2019-03-16T12:10:25.020Z,55.30
2019-03-16T12:12:51.472Z,55.40
2019-03-16T12:15:18.043Z,55.60
2019-03-16T12:17:44.489Z,53.70
2019-03-16T12:20:17.809Z,55.60
2019-03-16T12:22:43.352Z,57.10
2019-03-16T12:25:09.997Z,55.10
2019-03-16T12:27:36.556Z,53.80
2019-03-16T12:30:08.608Z,56.50
2019-03-16T12:32:35.194Z,52.90
2019-03-16T12:35:02.817Z,55.20
2019-03-16T12:37:30.336Z,54.60
2019-03-16T12:39:56.801Z,54.80
2019-03-16T12:42:23.224Z,54.70
2019-03-16T12:44:49.679Z,52.70
2019-03-16T12:47:16.139Z,53.20
2019-03-16T12:49:42.596Z,51.10
2019-03-16T12:52:09.036Z,50.30
2019-03-16T12:54:35.560Z,56.30
2019-03-16T12:57:02.093Z,51.50
2019-03-16T12:59:28.681Z,52.60
2019-03-16T13:01:55.133Z,50.80
2019-03-16T13:04:21.588Z,52.00
2019-03-16T13:06:48.075Z,52.90
2019-03-16T13:09:14.524Z,52.50
2019-03-16T13:11:40.977Z,52.70
2019-03-16T13:14:07.455Z,53.20
2019-03-16T13:16:33.994Z,52.60
2019-03-16T13:19:00.482Z,52.70
2019-03-16T13:21:26.959Z,51.70
2019-03-16T13:23:53.413Z,52.20
2019-03-16T13:26:19.939Z,51.30
2019-03-16T13:28:46.383Z,51.50
2019-03-16T13:31:12.851Z,51.40
2019-03-16T13:33:39.367Z,50.90
2019-03-16T13:36:05.857Z,51.40
2019-03-16T13:38:32.331Z,50.80
2019-03-16T13:40:59.722Z,50.80
2019-03-16T13:43:26.181Z,50.80
2019-03-16T13:45:52.644Z,50.50
2019-03-16T13:48:19.086Z,49.90
2019-03-16T13:50:45.691Z,50.30
2019-03-16T13:53:12.751Z,50.00
2019-03-16T13:55:39.192Z,49.20
2019-03-16T13:58:05.729Z,50.20
2019-03-16T14:00:32.160Z,50.10
2019-03-16T14:02:58.808Z,48.00
2019-03-16T14:05:25.354Z,48.30
2019-03-16T14:07:51.817Z,48.20
2019-03-16T14:10:24.442Z,48.50
2019-03-16T14:12:50.909Z,49.60
2019-03-16T14:15:17.355Z,48.20
2019-03-16T14:17:43.828Z,49.30
2019-03-16T14:20:12.561Z,49.20
2019-03-16T14:22:39.122Z,49.50
2019-03-16T14:25:07.670Z,50.10
2019-03-16T14:27:35.144Z,51.40
2019-03-16T14:30:02.439Z,52.00
2019-03-16T14:32:28.871Z,50.70
2019-03-16T14:34:55.324Z,51.00
2019-03-16T14:37:21.893Z,50.40
2019-03-16T14:39:48.529Z,50.50
2019-03-16T14:42:15.020Z,49.40
2019-03-16T14:44:41.467Z,49.40
2019-03-16T14:47:08.078Z,50.70
2019-03-16T14:49:35.753Z,51.00
2019-03-16T14:52:02.412Z,50.70
2019-03-16T14:54:28.892Z,49.80
2019-03-16T14:56:55.481Z,50.40
2019-03-16T14:59:21.972Z,50.00
2019-03-16T15:01:48.454Z,49.20
2019-03-16T15:04:14.903Z,50.90
2019-03-16T15:06:41.457Z,51.60
2019-03-16T15:09:07.980Z,50.70
2019-03-16T15:11:34.566Z,49.90
2019-03-16T15:14:01.020Z,49.20
2019-03-16T15:16:29.617Z,49.10
2019-03-16T15:18:56.075Z,48.80
2019-03-16T15:21:22.557Z,48.70
2019-03-16T15:23:48.988Z,47.50
2019-03-16T15:26:15.462Z,46.00
2019-03-16T15:28:41.914Z,47.60
2019-03-16T15:31:08.373Z,47.00
2019-03-16T15:33:34.958Z,47.20
2019-03-16T15:36:01.393Z,47.90
2019-03-16T15:38:30.757Z,47.70
2019-03-16T15:40:56.291Z,49.40
2019-03-16T15:43:22.784Z,51.80
2019-03-16T15:45:49.219Z,53.10
2019-03-16T15:48:15.681Z,54.20
2019-03-16T15:50:42.177Z,54.90
2019-03-16T15:53:08.753Z,55.10
2019-03-16T15:55:35.220Z,56.30
2019-03-16T15:58:08.200Z,56.40
2019-03-16T16:00:30.002Z,56.70
2019-03-16T16:02:56.637Z,57.10
2019-03-16T16:05:23.135Z,56.60
2019-03-16T16:07:49.647Z,57.40
2019-03-16T16:10:19.343Z,58.10
2019-03-16T16:12:45.812Z,58.70
2019-03-16T16:15:12.754Z,59.20
2019-03-16T16:17:39.446Z,59.70
2019-03-16T16:20:09.694Z,60.20
2019-03-16T16:22:36.163Z,60.30
2019-03-16T16:25:04.644Z,60.80
2019-03-16T16:27:31.313Z,61.10
2019-03-16T16:29:57.744Z,61.70
2019-03-16T16:32:24.229Z,61.60
2019-03-16T16:34:50.821Z,61.90
2019-03-16T16:37:17.432Z,62.30
2019-03-16T16:39:43.917Z,62.60
2019-03-16T16:42:10.447Z,62.30
2019-03-16T16:44:36.981Z,62.70
2019-03-16T16:47:03.579Z,63.10
2019-03-16T16:49:30.063Z,63.40
2019-03-16T16:51:56.539Z,63.80
2019-03-16T16:54:23.016Z,64.10
2019-03-16T16:56:49.480Z,64.30
2019-03-16T16:59:15.915Z,64.30
2019-03-16T17:01:42.462Z,65.00
2019-03-16T17:04:09.025Z,65.60
2019-03-16T17:06:35.660Z,66.00
2019-03-16T17:09:03.675Z,66.30
2019-03-16T17:11:30.233Z,66.30
2019-03-16T17:13:56.787Z,66.80
2019-03-16T17:16:23.362Z,67.10
2019-03-16T17:18:49.904Z,66.80
2019-03-16T17:21:16.379Z,67.10
2019-03-16T17:23:42.858Z,67.20
2019-03-16T17:26:09.334Z,67.50
2019-03-16T17:28:35.775Z,67.70
2019-03-16T17:31:06.034Z,68.10
2019-03-16T17:33:33.572Z,68.30
2019-03-16T17:36:00.053Z,68.50
2019-03-16T17:38:26.507Z,68.80
2019-03-16T17:40:53.005Z,69.10
2019-03-16T17:43:19.571Z,69.00
2019-03-16T17:45:46.045Z,69.50
2019-03-16T17:48:12.921Z,69.70
2019-03-16T17:50:39.769Z,70.00
2019-03-16T17:53:11.189Z,69.90
2019-03-16T17:55:40.043Z,70.20
2019-03-16T17:58:06.876Z,70.20
2019-03-16T18:00:33.664Z,70.80
2019-03-16T18:03:14.251Z,71.30
2019-03-16T18:05:46.968Z,71.50
2019-03-16T18:08:16.640Z,72.00
2019-03-16T18:16:28.257Z,72.90
2019-03-16T18:19:03.632Z,73.10
2019-03-16T18:21:30.696Z,73.40
2019-03-16T18:23:58.304Z,73.90
2019-03-16T18:26:28.241Z,73.70
2019-03-16T18:28:56.121Z,73.90
2019-03-16T18:31:22.612Z,74.00
2019-03-16T18:33:49.326Z,74.30
2019-03-16T18:36:15.766Z,74.30
2019-03-16T18:38:42.249Z,74.20
2019-03-16T18:41:08.823Z,74.50
2019-03-16T18:43:35.347Z,74.60
2019-03-16T18:46:03.152Z,74.80
2019-03-16T18:48:30.886Z,75.00
2019-03-16T18:50:57.613Z,75.00
2019-03-16T18:53:24.328Z,74.80
2019-03-16T18:55:50.818Z,75.10
2019-03-16T18:58:17.274Z,75.10
2019-03-16T19:00:43.978Z,75.60
2019-03-16T19:03:11.657Z,76.00
2019-03-16T19:05:38.267Z,76.20
2019-03-16T19:08:04.941Z,76.50
2019-03-16T19:10:31.724Z,76.30
2019-03-16T19:12:58.548Z,76.80
2019-03-16T19:15:28.429Z,76.90
2019-03-16T19:17:59.194Z,77.20
2019-03-16T19:20:25.361Z,77.60
2019-03-16T19:22:52.837Z,78.30
2019-03-16T19:25:20.235Z,78.60
2019-03-16T19:27:46.890Z,78.60
2019-03-16T19:30:14.184Z,78.70
2019-03-16T19:32:40.979Z,78.90
2019-03-16T19:35:07.727Z,78.70
2019-03-16T19:37:35.339Z,79.10
2019-03-16T19:40:02.020Z,79.80
2019-03-16T19:42:29.679Z,79.70
2019-03-16T19:44:56.278Z,79.50
2019-03-16T19:47:23.628Z,79.50
2019-03-16T19:49:50.664Z,79.50
2019-03-16T19:52:17.374Z,80.00
2019-03-16T19:54:44.452Z,79.60
2019-03-16T19:57:16.161Z,80.00
2019-03-16T19:59:41.947Z,79.30
2019-03-16T20:02:08.635Z,79.00
2019-03-16T20:04:36.463Z,78.70
2019-03-16T20:07:04.255Z,79.90
2019-03-16T20:09:30.920Z,79.50
2019-03-16T20:11:57.542Z,79.20
2019-03-16T20:14:24.153Z,79.60
2019-03-16T20:16:50.870Z,79.80
2019-03-16T20:19:19.788Z,80.00
2019-03-16T20:21:46.587Z,80.90
2019-03-16T20:24:13.214Z,80.80
2019-03-16T20:26:39.816Z,80.70
2019-03-16T20:29:07.896Z,81.10
2019-03-16T20:31:46.342Z,81.20
2019-03-16T20:34:05.608Z,81.10
2019-03-16T20:36:32.177Z,82.00
2019-03-16T20:38:58.878Z,82.30
2019-03-16T20:41:35.600Z,81.70
2019-03-16T20:43:53.867Z,82.30
2019-03-16T20:46:20.485Z,82.90
2019-03-16T20:48:47.292Z,82.70
2019-03-16T20:51:13.882Z,83.50
2019-03-16T20:53:40.333Z,83.40
2019-03-16T20:56:07.108Z,83.20
2019-03-16T20:58:33.590Z,82.70
2019-03-16T21:01:00.086Z,83.00
2019-03-16T21:03:26.582Z,83.20
2019-03-16T21:05:53.032Z,83.10
2019-03-16T21:08:19.483Z,83.50
2019-03-16T21:10:45.922Z,83.30
2019-03-16T21:13:12.359Z,84.00
2019-03-16T21:15:38.821Z,83.60
2019-03-16T21:18:05.241Z,83.60
2019-03-16T21:20:31.703Z,84.20
2019-03-16T21:22:58.160Z,84.10
2019-03-16T21:25:24.629Z,84.40
2019-03-16T21:27:51.123Z,85.30
2019-03-16T21:30:21.061Z,85.00
2019-03-16T21:32:47.698Z,85.10
2019-03-16T21:35:15.460Z,85.80
2019-03-16T21:37:42.109Z,85.60
2019-03-16T21:40:10.512Z,85.50
2019-03-16T21:42:37.049Z,85.50
2019-03-16T21:45:06.008Z,85.20
2019-03-16T21:47:32.493Z,86.00
2019-03-16T21:49:58.946Z,85.90
2019-03-16T21:52:25.425Z,86.10
2019-03-16T21:54:51.859Z,86.60
2019-03-16T21:57:18.471Z,87.00
2019-03-16T21:59:45.021Z,87.30
2019-03-16T22:02:11.445Z,87.00
2019-03-16T22:04:37.871Z,87.40
2019-03-16T22:07:04.415Z,88.10
2019-03-16T22:09:30.845Z,88.10
2019-03-16T22:11:57.399Z,88.10
2019-03-16T22:14:23.842Z,89.10
2019-03-16T22:16:50.276Z,88.60
2019-03-16T22:19:16.713Z,88.80
2019-03-16T22:21:43.185Z,89.50
2019-03-16T22:24:09.729Z,89.80
2019-03-16T22:26:36.170Z,89.20
2019-03-16T22:29:02.625Z,89.00
2019-03-16T22:31:29.086Z,88.80
2019-03-16T22:33:55.534Z,88.60
2019-03-16T22:36:21.993Z,88.10
2019-03-16T22:38:48.425Z,87.50
2019-03-16T22:41:14.867Z,87.40
2019-03-16T22:43:41.312Z,88.00
2019-03-16T22:46:07.754Z,87.90
2019-03-16T22:48:34.218Z,88.00
2019-03-16T22:51:00.687Z,87.80
2019-03-16T22:53:27.124Z,87.40
2019-03-16T22:55:53.577Z,87.40
2019-03-16T22:58:20.027Z,86.80
2019-03-16T23:00:49.361Z,86.60
2019-03-16T23:03:16.258Z,86.90
2019-03-16T23:05:42.768Z,86.70
2019-03-16T23:08:10.395Z,86.90
2019-03-16T23:10:36.851Z,86.70
2019-03-16T23:13:03.308Z,86.50
2019-03-16T23:15:29.734Z,86.60
2019-03-16T23:17:56.180Z,86.80
2019-03-16T23:20:22.624Z,86.50
2019-03-16T23:22:49.089Z,86.10
2019-03-16T23:25:15.553Z,86.30
2019-03-16T23:27:42.129Z,86.30
2019-03-16T23:30:10.567Z,86.50
2019-03-16T23:32:37.237Z,86.50
2019-03-16T23:35:05.806Z,86.30
2019-03-16T23:37:32.344Z,86.40
2019-03-16T23:39:58.871Z,86.80
2019-03-16T23:42:25.321Z,86.90
2019-03-16T23:44:51.743Z,87.10
2019-03-16T23:47:18.171Z,87.10
2019-03-16T23:49:44.658Z,86.80
2019-03-16T23:52:11.094Z,86.50
2019-03-16T23:54:37.568Z,86.00
2019-03-16T23:57:04.012Z,86.50
2019-03-16T23:59:30.488Z,86.30
